createdAt,value
2023-04-17T00:00:51.684Z,95379.00
2023-04-17T00:01:50.746Z,95379.00
2023-04-17T00:02:51.875Z,95379.00
2023-04-17T00:03:51.988Z,95377.00
2023-04-17T00:04:51.924Z,95379.00
2023-04-17T00:05:51.882Z,95379.00
2023-04-17T00:06:51.903Z,95377.00
2023-04-17T00:07:51.963Z,95379.00
2023-04-17T00:08:51.966Z,95381.00
2023-04-17T00:09:51.961Z,95379.00
2023-04-17T00:11:04.209Z,95379.00
2023-04-17T00:11:52.005Z,95381.00
2023-04-17T00:12:52.074Z,95379.00
2023-04-17T00:13:52.046Z,95379.00
2023-04-17T00:14:52.036Z,95379.00
2023-04-17T00:15:52.066Z,95379.00
2023-04-17T00:16:52.204Z,95379.00
2023-04-17T00:17:52.189Z,95379.00
2023-04-17T00:18:52.159Z,95375.00
2023-04-17T00:19:53.287Z,95379.00
2023-04-17T00:20:52.163Z,95373.00
2023-04-17T00:21:52.177Z,95371.00
2023-04-17T00:22:52.174Z,95371.00
2023-04-17T00:23:52.169Z,95371.00
2023-04-17T00:24:52.173Z,95369.00
2023-04-17T00:25:52.175Z,95367.00
2023-04-17T00:26:52.198Z,95371.00
2023-04-17T00:27:52.186Z,95367.00
2023-04-17T00:28:52.267Z,95369.00
2023-04-17T00:29:52.239Z,95369.00
2023-04-17T00:30:52.249Z,95369.00
2023-04-17T00:31:52.391Z,95367.00
2023-04-17T00:32:52.420Z,95367.00
2023-04-17T00:33:52.465Z,95367.00
2023-04-17T00:34:54.507Z,95363.00
2023-04-17T00:35:52.547Z,95361.00
2023-04-17T00:36:52.548Z,95360.00
2023-04-17T00:37:52.582Z,95361.00
2023-04-17T00:38:52.570Z,95361.00
2023-04-17T00:39:52.614Z,95358.00
2023-04-17T00:40:52.579Z,95358.00
2023-04-17T00:41:52.573Z,95356.00
2023-04-17T00:42:52.597Z,95356.00
2023-04-17T00:43:52.559Z,95352.00
2023-04-17T00:44:52.554Z,95354.00
2023-04-17T00:45:52.627Z,95352.00
2023-04-17T00:46:52.528Z,95352.00
2023-04-17T00:47:52.523Z,95352.00
2023-04-17T00:48:52.507Z,95354.00
2023-04-17T00:49:52.488Z,95350.00
2023-04-17T00:50:52.487Z,95354.00
2023-04-17T00:51:52.472Z,95356.00
2023-04-17T00:52:52.467Z,95354.00
2023-04-17T00:53:52.458Z,95354.00
2023-04-17T00:54:52.434Z,95352.00
2023-04-17T00:55:52.435Z,95354.00
2023-04-17T00:56:52.419Z,95352.00
2023-04-17T00:57:52.423Z,95352.00
2023-04-17T00:58:52.453Z,95352.00
2023-04-17T00:59:52.413Z,95350.00
2023-04-17T01:00:52.394Z,95352.00
2023-04-17T01:01:52.536Z,95354.00
2023-04-17T01:02:52.495Z,95354.00
2023-04-17T01:03:52.586Z,95352.00
2023-04-17T01:04:52.423Z,95354.00
2023-04-17T01:05:52.362Z,95350.00
2023-04-17T01:06:52.362Z,95348.00
2023-04-17T01:07:52.372Z,95346.00
2023-04-17T01:08:52.351Z,95342.00
2023-04-17T01:09:52.343Z,95344.00
2023-04-17T01:10:52.357Z,95344.00
2023-04-17T01:11:52.354Z,95340.00
2023-04-17T01:12:52.318Z,95342.00
2023-04-17T01:13:52.305Z,95340.00
2023-04-17T01:14:52.301Z,95336.00
2023-04-17T01:15:52.303Z,95336.00
2023-04-17T01:16:52.329Z,95336.00
2023-04-17T01:17:52.420Z,95336.00
2023-04-17T01:18:52.279Z,95336.00
2023-04-17T01:19:52.278Z,95338.00
2023-04-17T01:20:52.257Z,95338.00
2023-04-17T01:21:52.243Z,95338.00
2023-04-17T01:22:52.241Z,95336.00
2023-04-17T01:23:52.257Z,95336.00
2023-04-17T01:24:52.209Z,95338.00
2023-04-17T01:25:52.197Z,95338.00
2023-04-17T01:26:52.234Z,95336.00
2023-04-17T01:27:52.302Z,95338.00
2023-04-17T01:28:52.365Z,95340.00
2023-04-17T01:29:52.422Z,95338.00
2023-04-17T01:30:52.482Z,95334.00
2023-04-17T01:31:52.524Z,95338.00
2023-04-17T01:32:52.618Z,95334.00
2023-04-17T01:33:52.681Z,95336.00
2023-04-17T01:34:52.742Z,95334.00
2023-04-17T01:35:52.782Z,95334.00
2023-04-17T01:36:52.836Z,95332.00
2023-04-17T01:37:52.900Z,95328.00
2023-04-17T01:38:52.956Z,95334.00
2023-04-17T01:39:53.027Z,95330.00
2023-04-17T01:40:53.156Z,95330.00
2023-04-17T01:41:53.155Z,95332.00
2023-04-17T01:42:53.219Z,95328.00
2023-04-17T01:43:53.285Z,95328.00
2023-04-17T01:44:53.355Z,95326.00
2023-04-17T01:45:53.421Z,95326.00
2023-04-17T01:46:53.413Z,95324.00
2023-04-17T01:47:53.421Z,95326.00
2023-04-17T01:48:53.412Z,95326.00
2023-04-17T01:49:53.437Z,95324.00
2023-04-17T01:50:53.453Z,95322.00
2023-04-17T01:51:53.464Z,95322.00
2023-04-17T01:52:53.442Z,95322.00
2023-04-17T01:53:53.500Z,95324.00
2023-04-17T01:54:53.526Z,95326.00
2023-04-17T01:55:53.604Z,95326.00
2023-04-17T01:56:53.641Z,95332.00
2023-04-17T01:57:53.694Z,95336.00
2023-04-17T01:58:53.738Z,95336.00
2023-04-17T01:59:53.749Z,95338.00
2023-04-17T02:00:53.823Z,95340.00
2023-04-17T02:01:54.046Z,95342.00
2023-04-17T02:02:54.057Z,95346.00
2023-04-17T02:03:54.436Z,95348.00
2023-04-17T02:04:54.189Z,95346.00
2023-04-17T02:05:54.238Z,95346.00
2023-04-17T02:06:54.259Z,95346.00
2023-04-17T02:07:54.336Z,95346.00
2023-04-17T02:08:54.473Z,95348.00
2023-04-17T02:09:54.504Z,95348.00
2023-04-17T02:10:54.594Z,95352.00
2023-04-17T02:11:54.666Z,95350.00
2023-04-17T02:12:54.725Z,95354.00
2023-04-17T02:13:54.778Z,95354.00
2023-04-17T02:14:54.818Z,95354.00
2023-04-17T02:15:54.894Z,95356.00
2023-04-17T02:16:54.917Z,95354.00
2023-04-17T02:17:55.045Z,95356.00
2023-04-17T02:18:55.067Z,95356.00
2023-04-17T02:19:55.122Z,95358.00
2023-04-17T02:20:55.164Z,95354.00
2023-04-17T02:21:56.355Z,95356.00
2023-04-17T02:22:55.247Z,95358.00
2023-04-17T02:23:55.281Z,95358.00
2023-04-17T02:24:55.306Z,95358.00
2023-04-17T02:25:55.334Z,95360.00
2023-04-17T02:26:55.364Z,95360.00
2023-04-17T02:27:55.376Z,95358.00
2023-04-17T02:28:55.415Z,95361.00
2023-04-17T02:29:55.407Z,95360.00
2023-04-17T02:30:55.495Z,95360.00
2023-04-17T02:31:55.452Z,95358.00
2023-04-17T02:32:55.528Z,95360.00
2023-04-17T02:33:55.489Z,95361.00
2023-04-17T02:34:55.504Z,95361.00
2023-04-17T02:35:55.501Z,95363.00
2023-04-17T02:36:55.501Z,95361.00
2023-04-17T02:37:55.550Z,95363.00
2023-04-17T02:38:55.517Z,95360.00
2023-04-17T02:39:55.536Z,95360.00
2023-04-17T02:40:55.551Z,95361.00
2023-04-17T02:41:55.559Z,95361.00
2023-04-17T02:42:55.615Z,95360.00
2023-04-17T02:43:55.579Z,95361.00
2023-04-17T02:44:55.587Z,95360.00
2023-04-17T02:45:55.611Z,95360.00
2023-04-17T02:46:55.639Z,95356.00
2023-04-17T02:47:55.718Z,95360.00
2023-04-17T02:48:55.669Z,95356.00
2023-04-17T02:49:55.665Z,95354.00
2023-04-17T02:50:55.691Z,95354.00
2023-04-17T02:51:55.685Z,95352.00
2023-04-17T02:52:55.707Z,95352.00
2023-04-17T02:53:55.738Z,95354.00
2023-04-17T02:54:55.717Z,95354.00
2023-04-17T02:55:55.717Z,95350.00
2023-04-17T02:56:55.717Z,95352.00
2023-04-17T02:57:55.728Z,95350.00
2023-04-17T02:58:55.769Z,95352.00
2023-04-17T02:59:55.824Z,95350.00
2023-04-17T03:00:55.914Z,95350.00
2023-04-17T03:01:56.074Z,95352.00
2023-04-17T03:02:56.167Z,95354.00
2023-04-17T03:03:56.614Z,95352.00
2023-04-17T03:04:56.157Z,95354.00
2023-04-17T03:05:56.219Z,95354.00
2023-04-17T03:06:56.335Z,95356.00
2023-04-17T03:07:56.352Z,95354.00
2023-04-17T03:08:56.399Z,95354.00
2023-04-17T03:09:56.495Z,95354.00
2023-04-17T03:10:56.530Z,95358.00
2023-04-17T03:11:56.612Z,95354.00
2023-04-17T03:12:56.668Z,95358.00
2023-04-17T03:13:56.729Z,95356.00
2023-04-17T03:14:56.752Z,95358.00
2023-04-17T03:15:56.846Z,95360.00
2023-04-17T03:16:56.966Z,95356.00
2023-04-17T03:17:57.076Z,95358.00
2023-04-17T03:18:57.036Z,95358.00
2023-04-17T03:19:57.136Z,95356.00
2023-04-17T03:20:57.201Z,95354.00
2023-04-17T03:21:57.265Z,95356.00
2023-04-17T03:22:57.305Z,95354.00
2023-04-17T03:23:57.326Z,95354.00
2023-04-17T03:24:57.360Z,95350.00
2023-04-17T03:25:57.441Z,95352.00
2023-04-17T03:26:57.486Z,95352.00
2023-04-17T03:27:57.532Z,95354.00
2023-04-17T03:28:57.592Z,95356.00
2023-04-17T03:29:57.653Z,95352.00
2023-04-17T03:30:57.719Z,95354.00
2023-04-17T03:31:57.861Z,95356.00
2023-04-17T03:32:57.863Z,95354.00
2023-04-17T03:33:57.898Z,95354.00
2023-04-17T03:34:57.949Z,95356.00
2023-04-17T03:35:58.006Z,95358.00
2023-04-17T03:36:58.064Z,95358.00
2023-04-17T03:37:58.158Z,95360.00
2023-04-17T03:38:58.198Z,95358.00
2023-04-17T03:39:58.256Z,95360.00
2023-04-17T03:40:58.334Z,95356.00
2023-04-17T03:41:58.400Z,95358.00
2023-04-17T03:42:58.479Z,95358.00
2023-04-17T03:43:58.492Z,95356.00
2023-04-17T03:44:58.563Z,95360.00
2023-04-17T03:45:58.670Z,95358.00
2023-04-17T03:46:58.656Z,95360.00
2023-04-17T03:47:58.807Z,95361.00
2023-04-17T03:48:58.761Z,95361.00
2023-04-17T03:49:58.846Z,95363.00
2023-04-17T03:50:58.847Z,95360.00
2023-04-17T03:51:58.897Z,95365.00
2023-04-17T03:52:58.980Z,95365.00
2023-04-17T03:53:59.012Z,95365.00
2023-04-17T03:54:59.057Z,95363.00
2023-04-17T03:55:59.129Z,95365.00
2023-04-17T03:56:59.182Z,95365.00
2023-04-17T03:57:59.206Z,95365.00
2023-04-17T03:58:59.234Z,95367.00
2023-04-17T03:59:59.281Z,95365.00
2023-04-17T04:00:59.353Z,95369.00
2023-04-17T04:01:59.497Z,95367.00
2023-04-17T04:02:59.624Z,95367.00
2023-04-17T04:03:59.555Z,95369.00
2023-04-17T04:04:59.597Z,95371.00
2023-04-17T04:05:59.601Z,95371.00
2023-04-17T04:06:59.555Z,95373.00
2023-04-17T04:07:59.587Z,95375.00
2023-04-17T04:08:59.616Z,95377.00
2023-04-17T04:09:59.665Z,95373.00
2023-04-17T04:10:59.683Z,95377.00
2023-04-17T04:11:59.718Z,95373.00
2023-04-17T04:12:59.769Z,95373.00
2023-04-17T04:13:59.844Z,95373.00
2023-04-17T04:14:59.906Z,95375.00
2023-04-17T04:16:00.153Z,95377.00
2023-04-17T04:17:00.048Z,95377.00
2023-04-17T04:18:00.158Z,95377.00
2023-04-17T04:19:00.152Z,95379.00
2023-04-17T04:20:00.219Z,95379.00
2023-04-17T04:21:00.355Z,95377.00
2023-04-17T04:22:00.349Z,95373.00
2023-04-17T04:23:00.370Z,95375.00
2023-04-17T04:24:00.399Z,95375.00
2023-04-17T04:25:00.444Z,95373.00
2023-04-17T04:26:00.499Z,95375.00
2023-04-17T04:27:00.509Z,95377.00
2023-04-17T04:28:00.560Z,95373.00
2023-04-17T04:29:00.616Z,95373.00
2023-04-17T04:30:00.670Z,95379.00
2023-04-17T04:31:00.740Z,95377.00
2023-04-17T04:32:00.720Z,95379.00
2023-04-17T04:33:00.845Z,95379.00
2023-04-17T04:34:00.840Z,95383.00
2023-04-17T04:35:00.906Z,95381.00
2023-04-17T04:36:01.273Z,95383.00
2023-04-17T04:37:01.041Z,95381.00
2023-04-17T04:38:01.117Z,95381.00
2023-04-17T04:39:01.167Z,95383.00
2023-04-17T04:40:01.208Z,95385.00
2023-04-17T04:41:01.282Z,95383.00
2023-04-17T04:42:01.339Z,95383.00
2023-04-17T04:43:01.412Z,95387.00
2023-04-17T04:44:01.522Z,95385.00
2023-04-17T04:45:01.592Z,95385.00
2023-04-17T04:46:01.714Z,95385.00
2023-04-17T04:47:01.802Z,95385.00
2023-04-17T04:48:01.698Z,95385.00
2023-04-17T04:49:01.724Z,95385.00
2023-04-17T04:50:01.701Z,95385.00
2023-04-17T04:51:01.721Z,95383.00
2023-04-17T04:52:01.733Z,95387.00
2023-04-17T04:53:01.767Z,95387.00
2023-04-17T04:54:01.785Z,95391.00
2023-04-17T04:55:01.870Z,95389.00
2023-04-17T04:56:01.810Z,95393.00
2023-04-17T04:57:01.853Z,95393.00
2023-04-17T04:58:01.884Z,95393.00
2023-04-17T04:59:01.865Z,95395.00
2023-04-17T05:00:01.981Z,95393.00
2023-04-17T05:01:01.991Z,95393.00
2023-04-17T05:02:02.053Z,95395.00
2023-04-17T05:03:02.200Z,95397.00
2023-04-17T05:04:02.223Z,95397.00
2023-04-17T05:05:02.158Z,95399.00
2023-04-17T05:06:02.075Z,95401.00
2023-04-17T05:07:02.107Z,95399.00
2023-04-17T05:08:02.059Z,95399.00
2023-04-17T05:09:02.159Z,95397.00
2023-04-17T05:10:02.057Z,95397.00
2023-04-17T05:11:02.141Z,95397.00
2023-04-17T05:12:02.067Z,95393.00
2023-04-17T05:13:02.076Z,95393.00
2023-04-17T05:14:02.096Z,95395.00
2023-04-17T05:15:02.123Z,95393.00
2023-04-17T05:16:02.248Z,95391.00
2023-04-17T05:17:02.161Z,95393.00
2023-04-17T05:18:02.229Z,95391.00
2023-04-17T05:19:02.157Z,95393.00
2023-04-17T05:20:02.145Z,95393.00
2023-04-17T05:21:02.190Z,95397.00
2023-04-17T05:22:02.172Z,95395.00
2023-04-17T05:23:02.186Z,95395.00
2023-04-17T05:24:02.373Z,95395.00
2023-04-17T05:25:03.079Z,95399.00
2023-04-17T05:26:02.568Z,95397.00
2023-04-17T05:27:02.686Z,95397.00
2023-04-17T05:28:03.052Z,95399.00
2023-04-17T05:29:04.076Z,95399.00
2023-04-17T05:30:03.999Z,95395.00
2023-04-17T05:31:02.826Z,95397.00
2023-04-17T05:32:03.121Z,95397.00
2023-04-17T05:33:02.765Z,95399.00
2023-04-17T05:34:03.032Z,95401.00
2023-04-17T05:35:06.636Z,95399.00
2023-04-17T05:36:05.099Z,95401.00
2023-04-17T05:37:03.306Z,95399.00
2023-04-17T05:38:03.426Z,95403.00
2023-04-17T05:39:02.806Z,95403.00
2023-04-17T05:40:02.851Z,95405.00
2023-04-17T05:41:03.939Z,95407.00
2023-04-17T05:42:04.580Z,95414.00
2023-04-17T05:43:03.651Z,95416.00
2023-04-17T05:44:03.751Z,95416.00
2023-04-17T05:45:03.243Z,95414.00
2023-04-17T05:46:03.214Z,95407.00
2023-04-17T05:47:02.993Z,95405.00
2023-04-17T05:48:03.114Z,95416.00
2023-04-17T05:49:02.970Z,95414.00
2023-04-17T05:50:02.032Z,95407.00
2023-04-17T05:51:02.961Z,95416.00
2023-04-17T05:52:03.469Z,95414.00
2023-04-17T05:53:04.653Z,95416.00
2023-04-17T05:54:04.223Z,95416.00
2023-04-17T05:55:02.907Z,95416.00
2023-04-17T05:56:03.113Z,95414.00
2023-04-17T05:57:03.963Z,95414.00
2023-04-17T05:58:16.891Z,95416.00
2023-04-17T05:59:03.279Z,95418.00
2023-04-17T06:00:34.986Z,95416.00
2023-04-17T06:01:06.837Z,95418.00
2023-04-17T06:02:03.476Z,95416.00
2023-04-17T06:03:03.300Z,95418.00
2023-04-17T06:04:03.511Z,95418.00
2023-04-17T06:05:03.951Z,95418.00
2023-04-17T06:06:03.355Z,95422.00
2023-04-17T06:07:03.109Z,95426.00
2023-04-17T06:08:06.870Z,95426.00
2023-04-17T06:09:03.545Z,95422.00
2023-04-17T06:10:03.034Z,95424.00
2023-04-17T06:11:03.701Z,95420.00
2023-04-17T06:12:03.034Z,95422.00
2023-04-17T06:13:02.944Z,95420.00
2023-04-17T06:14:05.078Z,95426.00
2023-04-17T06:15:08.085Z,95426.00
2023-04-17T06:16:03.052Z,95428.00
2023-04-17T06:17:03.807Z,95422.00
2023-04-17T06:18:05.090Z,95426.00
2023-04-17T06:19:03.193Z,95424.00
2023-04-17T06:20:03.282Z,95424.00
2023-04-17T06:21:03.589Z,95424.00
2023-04-17T06:22:08.719Z,95426.00
2023-04-17T06:23:03.100Z,95428.00
2023-04-17T06:24:03.053Z,95428.00
2023-04-17T06:25:03.060Z,95428.00
2023-04-17T06:26:03.313Z,95426.00
2023-04-17T06:27:03.562Z,95428.00
2023-04-17T06:28:15.410Z,95430.00
2023-04-17T06:29:13.257Z,95432.00
2023-04-17T06:30:08.794Z,95430.00
2023-04-17T06:31:05.723Z,95428.00
2023-04-17T06:32:09.685Z,95430.00
2023-04-17T06:33:10.282Z,95432.00
2023-04-17T06:34:09.864Z,95434.00
2023-04-17T06:35:04.266Z,95432.00
2023-04-17T06:36:06.746Z,95436.00
2023-04-17T06:37:05.873Z,95436.00
2023-04-17T06:38:03.267Z,95434.00
2023-04-17T06:39:08.050Z,95434.00
2023-04-17T06:40:03.988Z,95436.00
2023-04-17T06:41:17.712Z,95436.00
2023-04-17T06:42:30.584Z,95438.00
2023-04-17T06:43:35.797Z,95434.00
2023-04-17T06:44:26.082Z,95436.00
2023-04-17T06:45:34.658Z,95436.00
2023-04-17T06:46:26.903Z,95436.00
2023-04-17T06:47:26.289Z,95436.00
2023-04-17T06:48:24.499Z,95438.00
2023-04-17T06:49:25.668Z,95438.00
2023-04-17T06:50:30.209Z,95440.00
2023-04-17T06:51:24.546Z,95440.00
2023-04-17T06:52:24.933Z,95440.00
2023-04-17T06:53:26.548Z,95442.00
2023-04-17T06:54:27.421Z,95442.00
2023-04-17T06:55:23.232Z,95442.00
2023-04-17T06:56:24.887Z,95442.00
2023-04-17T06:57:30.800Z,95442.00
2023-04-17T06:58:24.965Z,95442.00
2023-04-17T06:59:29.381Z,95442.00
2023-04-17T07:00:27.612Z,95444.00
2023-04-17T07:01:27.951Z,95444.00
2023-04-17T07:02:27.987Z,95444.00
2023-04-17T07:03:28.692Z,95442.00
2023-04-17T07:04:26.554Z,95442.00
2023-04-17T07:05:24.372Z,95446.00
2023-04-17T07:06:25.086Z,95444.00
2023-04-17T07:07:29.588Z,95440.00
2023-04-17T07:08:27.417Z,95442.00
2023-04-17T07:09:38.832Z,95440.00
2023-04-17T07:10:51.729Z,95442.00
2023-04-17T07:11:55.236Z,95440.00
2023-04-17T07:12:45.780Z,95444.00
2023-04-17T07:13:49.235Z,95442.00
2023-04-17T07:14:45.178Z,95442.00
2023-04-17T07:15:52.754Z,95442.00
2023-04-17T07:16:50.548Z,95444.00
2023-04-17T07:17:44.274Z,95446.00
2023-04-17T07:18:43.418Z,95444.00
2023-04-17T07:19:43.245Z,95448.00
2023-04-17T07:20:44.289Z,95446.00
2023-04-17T07:21:45.303Z,95446.00
2023-04-17T07:22:48.305Z,95444.00
2023-04-17T07:23:50.238Z,95446.00
2023-04-17T07:24:52.343Z,95444.00
2023-04-17T07:25:43.781Z,95446.00
2023-04-17T07:26:43.883Z,95444.00
2023-04-17T07:27:44.698Z,95440.00
2023-04-17T07:28:43.974Z,95442.00
2023-04-17T07:29:43.510Z,95442.00
2023-04-17T07:30:44.610Z,95442.00
2023-04-17T07:31:53.301Z,95442.00
2023-04-17T07:32:46.781Z,95438.00
2023-04-17T07:33:46.215Z,95442.00
2023-04-17T07:34:45.113Z,95440.00
2023-04-17T07:35:43.545Z,95440.00
2023-04-17T07:36:45.093Z,95440.00
2023-04-17T07:37:43.654Z,95442.00
2023-04-17T07:38:44.215Z,95438.00
2023-04-17T07:39:45.172Z,95440.00
2023-04-17T07:40:45.715Z,95440.00
2023-04-17T07:41:44.538Z,95442.00
2023-04-17T07:42:45.718Z,95442.00
2023-04-17T07:43:44.484Z,95442.00
2023-04-17T07:44:43.621Z,95440.00
2023-04-17T07:45:43.953Z,95444.00
2023-04-17T07:46:44.414Z,95442.00
2023-04-17T07:47:45.088Z,95442.00
2023-04-17T07:48:44.870Z,95444.00
2023-04-17T07:49:46.728Z,95446.00
2023-04-17T07:50:44.910Z,95440.00
2023-04-17T07:51:43.551Z,95444.00
2023-04-17T07:52:45.726Z,95442.00
2023-04-17T07:53:44.187Z,95444.00
2023-04-17T07:54:45.978Z,95448.00
2023-04-17T07:55:46.211Z,95446.00
2023-04-17T07:56:45.050Z,95446.00
2023-04-17T07:57:45.486Z,95446.00
2023-04-17T07:58:48.148Z,95444.00
2023-04-17T07:59:46.667Z,95450.00
2023-04-17T08:01:16.999Z,95448.00
2023-04-17T08:01:46.083Z,95454.00
2023-04-17T08:02:47.856Z,95456.00
2023-04-17T08:03:46.962Z,95456.00
2023-04-17T08:04:45.369Z,95456.00
2023-04-17T08:05:44.735Z,95458.00
2023-04-17T08:06:46.732Z,95460.00
2023-04-17T08:07:54.720Z,95458.00
2023-04-17T08:08:55.458Z,95461.00
2023-04-17T08:09:44.944Z,95461.00
2023-04-17T08:10:46.028Z,95460.00
2023-04-17T08:11:56.179Z,95460.00
2023-04-17T08:12:46.723Z,95460.00
2023-04-17T08:13:48.728Z,95460.00
2023-04-17T08:14:46.768Z,95454.00
2023-04-17T08:15:46.728Z,95454.00
2023-04-17T08:16:47.777Z,95460.00
2023-04-17T08:17:44.909Z,95454.00
2023-04-17T08:18:46.381Z,95450.00
2023-04-17T08:19:45.107Z,95452.00
2023-04-17T08:20:47.092Z,95448.00
2023-04-17T08:21:48.779Z,95446.00
2023-04-17T08:24:05.481Z,95448.00
2023-04-17T08:25:14.520Z,95452.00
2023-04-17T08:26:07.111Z,95450.00
2023-04-17T08:27:19.928Z,95450.00
2023-04-17T08:28:07.148Z,95444.00
2023-04-17T08:29:06.900Z,95446.00
2023-04-17T08:30:06.165Z,95446.00
2023-04-17T08:31:06.104Z,95446.00
2023-04-17T08:32:14.745Z,95444.00
2023-04-17T08:33:09.367Z,95446.00
2023-04-17T08:34:14.535Z,95446.00
2023-04-17T08:35:08.060Z,95446.00
2023-04-17T08:36:08.602Z,95446.00
2023-04-17T08:37:06.790Z,95448.00
2023-04-17T08:38:04.345Z,95446.00
2023-04-17T08:39:05.854Z,95448.00
2023-04-17T08:40:06.784Z,95450.00
2023-04-17T08:41:04.218Z,95446.00
2023-04-17T08:42:05.207Z,95444.00
2023-04-17T08:43:04.445Z,95450.00
2023-04-17T08:44:04.376Z,95448.00
2023-04-17T08:45:04.713Z,95450.00
2023-04-17T08:46:05.264Z,95450.00
2023-04-17T08:47:03.998Z,95448.00
2023-04-17T08:48:05.280Z,95448.00
2023-04-17T08:49:05.623Z,95446.00
2023-04-17T08:50:04.993Z,95448.00
2023-04-17T08:51:05.708Z,95450.00
2023-04-17T08:52:04.476Z,95444.00
2023-04-17T08:53:04.548Z,95446.00
2023-04-17T08:54:04.996Z,95446.00
2023-04-17T08:55:05.415Z,95444.00
2023-04-17T08:56:06.887Z,95448.00
2023-04-17T08:57:06.792Z,95446.00
2023-04-17T08:58:06.802Z,95446.00
2023-04-17T08:59:04.877Z,95448.00
2023-04-17T09:00:05.056Z,95446.00
2023-04-17T09:01:05.502Z,95448.00
2023-04-17T09:02:05.373Z,95450.00
2023-04-17T09:03:05.302Z,95448.00
2023-04-17T09:04:05.348Z,95450.00
2023-04-17T09:05:07.316Z,95450.00
2023-04-17T09:06:08.099Z,95450.00
2023-04-17T09:07:06.627Z,95454.00
2023-04-17T09:08:05.366Z,95448.00
2023-04-17T09:09:04.476Z,95448.00
2023-04-17T09:10:07.793Z,95452.00
2023-04-17T09:11:05.792Z,95444.00
2023-04-17T09:12:06.792Z,95446.00
2023-04-17T09:13:05.389Z,95448.00
2023-04-17T09:14:06.792Z,95446.00
2023-04-17T09:15:07.421Z,95444.00
2023-04-17T09:16:08.100Z,95442.00
2023-04-17T09:17:05.184Z,95442.00
2023-04-17T09:18:04.851Z,95438.00
2023-04-17T09:19:05.099Z,95440.00
2023-04-17T09:20:05.307Z,95440.00
2023-04-17T09:21:07.431Z,95438.00
2023-04-17T09:22:06.792Z,95436.00
2023-04-17T09:23:07.422Z,95438.00
2023-04-17T09:24:04.768Z,95438.00
2023-04-17T09:25:06.452Z,95436.00
2023-04-17T09:26:04.489Z,95434.00
2023-04-17T09:27:10.474Z,95438.00
2023-04-17T09:28:13.058Z,95436.00
2023-04-17T09:29:04.288Z,95436.00
2023-04-17T09:30:05.165Z,95434.00
2023-04-17T09:31:06.026Z,95436.00
2023-04-17T09:32:06.195Z,95438.00
2023-04-17T09:33:06.806Z,95438.00
2023-04-17T09:34:06.127Z,95436.00
2023-04-17T09:35:07.448Z,95440.00
2023-04-17T09:36:05.978Z,95442.00
2023-04-17T09:37:07.075Z,95442.00
2023-04-17T09:38:06.806Z,95440.00
2023-04-17T09:39:05.565Z,95440.00
2023-04-17T09:40:06.047Z,95444.00
2023-04-17T09:41:07.045Z,95438.00
2023-04-17T09:42:06.047Z,95438.00
2023-04-17T09:43:09.442Z,95440.00
2023-04-17T09:44:05.808Z,95442.00
2023-04-17T09:45:06.810Z,95442.00
2023-04-17T09:46:04.614Z,95442.00
2023-04-17T09:47:04.885Z,95442.00
2023-04-17T09:48:04.714Z,95442.00
2023-04-17T09:49:05.960Z,95444.00
2023-04-17T09:50:05.691Z,95444.00
2023-04-17T09:51:09.194Z,95444.00
2023-04-17T09:52:05.070Z,95446.00
2023-04-17T09:53:05.362Z,95444.00
2023-04-17T09:54:04.536Z,95442.00
2023-04-17T09:55:05.077Z,95442.00
2023-04-17T09:56:04.739Z,95444.00
2023-04-17T09:57:04.660Z,95446.00
2023-04-17T09:58:05.169Z,95442.00
2023-04-17T09:59:05.021Z,95444.00
2023-04-17T10:00:06.589Z,95442.00
2023-04-17T10:01:06.912Z,95444.00
2023-04-17T10:02:12.693Z,95446.00
2023-04-17T10:03:05.856Z,95444.00
2023-04-17T10:04:04.622Z,95442.00
2023-04-17T10:05:04.719Z,95440.00
2023-04-17T10:06:07.870Z,95438.00
2023-04-17T10:07:05.162Z,95440.00
2023-04-17T10:08:04.256Z,95442.00
2023-04-17T10:09:17.389Z,95436.00
2023-04-17T10:10:30.344Z,95432.00
2023-04-17T10:11:25.147Z,95434.00
2023-04-17T10:12:26.108Z,95436.00
2023-04-17T10:13:24.112Z,95432.00
2023-04-17T10:14:23.974Z,95440.00
2023-04-17T10:15:26.944Z,95438.00
2023-04-17T10:16:27.167Z,95432.00
2023-04-17T10:17:25.929Z,95434.00
2023-04-17T10:18:24.949Z,95432.00
2023-04-17T10:19:23.959Z,95432.00
2023-04-17T10:20:24.469Z,95436.00
2023-04-17T10:21:24.081Z,95430.00
2023-04-17T10:22:24.236Z,95442.00
2023-04-17T10:23:25.343Z,95436.00
2023-04-17T10:24:25.528Z,95432.00
2023-04-17T10:25:25.428Z,95434.00
2023-04-17T10:26:26.499Z,95440.00
2023-04-17T10:27:25.209Z,95436.00
2023-04-17T10:28:24.751Z,95434.00
2023-04-17T10:29:24.944Z,95432.00
2023-04-17T10:30:24.568Z,95432.00
2023-04-17T10:31:26.232Z,95436.00
2023-04-17T10:32:25.265Z,95430.00
2023-04-17T10:33:25.675Z,95430.00
2023-04-17T10:34:25.056Z,95428.00
2023-04-17T10:35:24.992Z,95430.00
2023-04-17T10:36:25.152Z,95430.00
2023-04-17T10:37:25.607Z,95430.00
2023-04-17T10:38:28.489Z,95428.00
2023-04-17T10:39:25.119Z,95426.00
2023-04-17T10:40:26.793Z,95428.00
2023-04-17T10:41:27.528Z,95422.00
2023-04-17T10:42:25.929Z,95422.00
2023-04-17T10:43:27.611Z,95420.00
2023-04-17T10:44:26.317Z,95420.00
2023-04-17T10:45:27.801Z,95418.00
2023-04-17T10:46:25.502Z,95416.00
2023-04-17T10:47:28.386Z,95414.00
2023-04-17T10:48:27.040Z,95405.00
2023-04-17T10:49:25.281Z,95414.00
2023-04-17T10:50:26.058Z,95405.00
2023-04-17T10:51:29.468Z,95403.00
2023-04-17T10:53:44.794Z,95401.00
2023-04-17T10:54:53.098Z,95403.00
2023-04-17T10:55:49.123Z,95397.00
2023-04-17T10:56:49.287Z,95397.00
2023-04-17T10:57:48.420Z,95401.00
2023-04-17T10:58:47.716Z,95401.00
2023-04-17T10:59:48.571Z,95395.00
2023-04-17T11:00:47.026Z,95397.00
2023-04-17T11:01:48.776Z,95399.00
2023-04-17T11:02:47.025Z,95399.00
2023-04-17T11:03:48.435Z,95397.00
2023-04-17T11:04:45.936Z,95395.00
2023-04-17T11:05:46.220Z,95397.00
2023-04-17T11:06:48.026Z,95393.00
2023-04-17T11:07:45.382Z,95395.00
2023-04-17T11:08:47.035Z,95395.00
2023-04-17T11:09:47.028Z,95393.00
2023-04-17T11:10:51.589Z,95395.00
2023-04-17T11:11:45.610Z,95393.00
2023-04-17T11:12:45.311Z,95393.00
2023-04-17T11:13:48.637Z,95393.00
2023-04-17T11:14:44.537Z,95393.00
2023-04-17T11:15:51.090Z,95391.00
2023-04-17T11:16:46.951Z,95393.00
2023-04-17T11:17:48.229Z,95387.00
2023-04-17T11:18:48.928Z,95389.00
2023-04-17T11:19:47.569Z,95387.00
2023-04-17T11:20:52.411Z,95393.00
2023-04-17T11:21:46.040Z,95389.00
2023-04-17T11:22:45.036Z,95387.00
2023-04-17T11:23:46.047Z,95385.00
2023-04-17T11:24:47.036Z,95385.00
2023-04-17T11:25:46.114Z,95387.00
2023-04-17T11:26:46.033Z,95385.00
2023-04-17T11:27:47.112Z,95379.00
2023-04-17T11:28:46.033Z,95381.00
2023-04-17T11:29:47.033Z,95379.00
2023-04-17T11:30:45.241Z,95379.00
2023-04-17T11:31:43.938Z,95377.00
2023-04-17T11:32:44.520Z,95375.00
2023-04-17T11:33:44.704Z,95381.00
2023-04-17T11:34:44.984Z,95379.00
2023-04-17T11:35:44.308Z,95377.00
2023-04-17T11:36:43.909Z,95375.00
2023-04-17T11:37:44.246Z,95375.00
2023-04-17T11:38:45.185Z,95379.00
2023-04-17T11:39:45.035Z,95377.00
2023-04-17T11:40:44.486Z,95373.00
2023-04-17T11:41:43.588Z,95373.00
2023-04-17T11:42:46.251Z,95369.00
2023-04-17T11:43:45.238Z,95375.00
2023-04-17T11:44:47.021Z,95371.00
2023-04-17T11:45:46.120Z,95367.00
2023-04-17T11:46:45.617Z,95371.00
2023-04-17T11:47:44.527Z,95369.00
2023-04-17T11:48:45.269Z,95373.00